Avawam, Kentucky
Current Conditions -  °F | °C
As of 11:02 AM on Tuesday 21 Oct 2014 (Local Time) from KJKL Reporting Station
Overcast Overcast  
Wind Chill: 52°   Ceiling: 600
Heat Index: 52°   Visibility: 9mi
Dew Point: 48°   Wind: 7mph
Humidity: 86%   Direction: NA
Pressure: 30.01"   Gusts: NA
Location:  37.22°N, 83.27°W
Report Text: KJKL 211502Z AUTO VRB06KT 9SM BKN006 BKN012 OVC055 11/09 A3001 RMK AO2 CIG 005V009 T01110089
Loading
Personal Weather Stations






























Interactive Weather Map New forecast layout! Learn more

10-Day Weather Forecast

Advertisements
Track Severe Weather on mobile